Time;durP1;ratioP1;P1;durP2;ratioP2;P2;SDS_P1;SDS_P2;PMS_P1;PMS_P2;Temp;Humidity;BMP_temperature;BMP_pressure;BME280_temperature;BME280_humidity;BME280_pressure;Samples;Min_cycle;Max_cycle;Signal;HPM_P1;HPM_P2
2024/01/29 00:01:49;;;;;;;10.20;6.28;;;22.00;50.80;;;;;;5113763;28;20103;-71
2024/01/29 00:04:15;;;;;;;9.10;6.68;;;22.00;50.80;;;;;;5113018;28;20184;-71
2024/01/29 00:06:41;;;;;;;10.90;6.38;;;22.00;50.80;;;;;;5094641;28;21028;-72
2024/01/29 00:09:07;;;;;;;9.43;6.30;;;22.10;50.90;;;;;;5113191;28;20490;-71
2024/01/29 00:11:33;;;;;;;10.07;6.75;;;22.20;50.90;;;;;;5113414;28;20032;-71
2024/01/29 00:14:00;;;;;;;10.30;6.43;;;22.10;50.80;;;;;;5095136;28;20050;-71
2024/01/29 00:16:26;;;;;;;9.65;6.53;;;22.10;50.80;;;;;;5094676;28;20313;-71
2024/01/29 00:18:52;;;;;;;10.45;6.32;;;22.10;50.90;;;;;;5111690;28;20040;-71
2024/01/29 00:21:19;;;;;;;8.85;6.13;;;22.20;50.90;;;;;;5112676;28;20065;-71
2024/01/29 00:23:45;;;;;;;10.20;6.15;;;22.10;50.90;;;;;;5112045;28;20039;-71
2024/01/29 00:26:11;;;;;;;10.93;6.70;;;22.20;50.80;;;;;;5094269;28;20035;-71
2024/01/29 00:28:37;;;;;;;7.47;6.07;;;22.10;50.80;;;;;;5111865;28;20054;-71
2024/01/29 00:31:04;;;;;;;11.27;7.22;;;22.00;50.70;;;;;;5069349;28;20407;-71
2024/01/29 00:33:30;;;;;;;9.13;6.40;;;22.10;50.90;;;;;;5069086;28;20060;-71
2024/01/29 00:35:57;;;;;;;8.43;6.38;;;22.00;50.80;;;;;;5067985;28;20044;-71
2024/01/29 00:38:23;;;;;;;9.90;6.53;;;22.10;50.90;;;;;;5069084;28;20044;-71
2024/01/29 00:40:49;;;;;;;9.05;6.97;;;22.00;50.80;;;;;;5069201;28;20048;-72
2024/01/29 00:43:15;;;;;;;9.48;6.07;;;21.90;50.80;;;;;;5049173;28;20167;-73
2024/01/29 00:45:41;;;;;;;10.43;6.57;;;22.00;50.80;;;;;;5049120;28;20045;-72
2024/01/29 00:48:08;;;;;;;9.35;6.35;;;21.80;50.70;;;;;;5048805;28;20048;-71
2024/01/29 00:50:34;;;;;;;8.48;5.75;;;22.00;50.80;;;;;;5029705;28;20041;-71
2024/01/29 00:53:00;;;;;;;9.15;6.30;;;21.90;50.80;;;;;;5029502;28;20065;-72
2024/01/29 00:55:27;;;;;;;9.57;6.50;;;21.90;50.90;;;;;;5033670;28;20164;-72
2024/01/29 00:57:53;;;;;;;9.57;6.43;;;21.80;50.80;;;;;;5049316;28;20052;-71
2024/01/29 01:00:20;;;;;;;9.52;6.57;;;21.80;50.90;;;;;;5040783;28;20049;-71
2024/01/29 01:02:46;;;;;;;8.27;6.05;;;21.90;51.00;;;;;;5044173;28;20241;-70
2024/01/29 01:05:12;;;;;;;8.65;5.90;;;21.90;51.00;;;;;;5034870;28;20182;-71
2024/01/29 01:07:38;;;;;;;9.70;6.70;;;21.80;50.80;;;;;;5068614;28;20064;-71
2024/01/29 01:10:04;;;;;;;10.50;6.55;;;22.00;50.90;;;;;;5069179;28;20049;-71
2024/01/29 01:12:31;;;;;;;8.65;5.47;;;21.90;50.80;;;;;;5068921;28;20036;-71
2024/01/29 01:14:57;;;;;;;10.90;6.40;;;21.90;50.80;;;;;;5068824;28;20041;-71
2024/01/29 01:17:23;;;;;;;9.07;6.30;;;21.90;50.80;;;;;;5068518;28;20036;-72
2024/01/29 01:19:51;;;;;;;8.23;5.75;;;21.80;50.70;;;;;;5071249;28;20052;-71
2024/01/29 01:22:17;;;;;;;9.93;5.55;;;21.90;50.80;;;;;;5072263;28;20067;-71
2024/01/29 01:24:43;;;;;;;9.80;6.30;;;22.00;50.80;;;;;;5111714;28;20119;-71
2024/01/29 01:27:10;;;;;;;7.75;5.80;;;22.00;50.80;;;;;;5111793;28;20050;-72
2024/01/29 01:29:36;;;;;;;8.57;5.22;;;21.90;50.80;;;;;;5111716;28;20086;-71
2024/01/29 01:32:02;;;;;;;7.90;5.82;;;21.90;50.90;;;;;;5111563;28;20090;-72
2024/01/29 01:34:28;;;;;;;7.45;5.63;;;21.80;50.70;;;;;;5111542;28;20031;-72
2024/01/29 01:36:54;;;;;;;7.30;5.05;;;22.00;50.80;;;;;;5111028;28;20039;-72
2024/01/29 01:39:20;;;;;;;8.38;5.78;;;21.80;50.70;;;;;;5111283;28;20225;-70
2024/01/29 01:41:50;;;;;;;7.38;5.68;;;21.90;50.80;;;;;;5093190;28;20048;-71
2024/01/29 01:44:16;;;;;;;7.30;5.50;;;21.90;50.80;;;;;;5111371;28;20168;-72
2024/01/29 01:46:42;;;;;;;6.22;5.38;;;21.70;50.80;;;;;;5110045;28;20043;-70
2024/01/29 01:49:09;;;;;;;8.02;5.43;;;21.70;50.70;;;;;;5113093;28;20527;-71
2024/01/29 01:51:36;;;;;;;7.10;5.38;;;21.90;50.90;;;;;;5111785;28;20032;-71
2024/01/29 01:54:03;;;;;;;9.98;5.78;;;21.80;50.80;;;;;;5112178;28;20050;-72
2024/01/29 01:56:30;;;;;;;8.43;6.15;;;21.70;50.90;;;;;;5111053;28;20035;-72
2024/01/29 01:58:59;;;;;;;8.25;5.78;;;21.80;51.00;;;;;;5111340;28;20040;-71
2024/01/29 02:01:26;;;;;;;9.00;5.57;;;21.90;51.00;;;;;;5093271;28;20035;-71
2024/01/29 02:03:52;;;;;;;7.88;5.60;;;21.80;50.90;;;;;;5111107;28;20031;-72
2024/01/29 02:06:18;;;;;;;6.82;5.00;;;21.90;51.00;;;;;;5110895;28;20027;-71
2024/01/29 02:08:45;;;;;;;7.20;4.57;;;21.80;50.80;;;;;;5111526;28;20088;-72
2024/01/29 02:11:11;;;;;;;7.70;5.25;;;21.80;50.80;;;;;;5111479;28;20032;-71
2024/01/29 02:13:37;;;;;;;7.28;5.50;;;21.80;50.70;;;;;;5111542;28;20475;-71
2024/01/29 02:16:04;;;;;;;8.15;5.50;;;21.80;50.80;;;;;;5110523;28;20118;-72
2024/01/29 02:18:30;;;;;;;7.95;5.47;;;21.80;50.80;;;;;;5111063;28;20047;-71
2024/01/29 02:20:56;;;;;;;8.00;5.35;;;21.80;50.70;;;;;;5111159;28;20383;-71
2024/01/29 02:23:22;;;;;;;7.65;5.28;;;21.80;50.80;;;;;;5111112;28;20040;-71
2024/01/29 02:25:48;;;;;;;8.07;5.35;;;21.80;50.70;;;;;;5111152;28;20399;-71
2024/01/29 02:28:14;;;;;;;7.57;4.72;;;21.90;50.80;;;;;;5111205;28;20150;-72
2024/01/29 02:30:41;;;;;;;7.35;4.63;;;21.80;50.70;;;;;;5110660;28;20475;-71
2024/01/29 02:33:07;;;;;;;6.88;4.88;;;21.90;50.80;;;;;;5111082;28;20027;-71
2024/01/29 02:35:33;;;;;;;7.97;5.47;;;21.70;50.70;;;;;;5092201;28;20043;-73
2024/01/29 02:37:59;;;;;;;6.60;5.10;;;21.80;50.80;;;;;;5110750;28;20543;-71
2024/01/29 02:40:25;;;;;;;8.23;5.35;;;21.80;50.80;;;;;;5110674;28;20027;-72
2024/01/29 02:42:51;;;;;;;6.65;4.78;;;21.70;50.70;;;;;;5111481;28;20031;-72
2024/01/29 02:45:17;;;;;;;7.60;4.90;;;21.70;50.70;;;;;;5110116;28;20492;-73
2024/01/29 02:47:43;;;;;;;6.25;4.97;;;21.60;50.60;;;;;;5109768;28;20781;-71
2024/01/29 02:50:10;;;;;;;6.47;4.65;;;21.70;50.80;;;;;;5110637;28;20118;-71
2024/01/29 02:52:36;;;;;;;6.95;4.72;;;21.70;50.70;;;;;;5110355;28;20039;-72
2024/01/29 02:55:02;;;;;;;6.05;4.20;;;21.60;50.70;;;;;;5110511;28;20032;-72
2024/01/29 02:57:29;;;;;;;5.90;4.47;;;21.60;50.80;;;;;;5087750;28;20044;-71
2024/01/29 02:59:55;;;;;;;7.03;5.38;;;21.70;50.70;;;;;;5100747;28;20034;-71
2024/01/29 03:02:21;;;;;;;7.15;5.28;;;21.80;50.80;;;;;;5095980;28;20023;-72
2024/01/29 03:04:47;;;;;;;7.65;5.63;;;21.80;50.70;;;;;;5095550;28;20028;-73
2024/01/29 03:07:13;;;;;;;7.78;5.28;;;21.70;50.70;;;;;;5113758;28;20107;-73
2024/01/29 03:09:39;;;;;;;9.88;5.70;;;21.70;50.70;;;;;;5114267;28;20038;-72
2024/01/29 03:12:05;;;;;;;9.32;6.22;;;21.80;50.60;;;;;;5114213;28;20447;-71
2024/01/29 03:14:31;;;;;;;9.45;6.28;;;21.70;50.70;;;;;;5114226;28;20046;-72
2024/01/29 03:16:57;;;;;;;6.35;4.75;;;21.70;50.70;;;;;;5113829;28;20443;-71
2024/01/29 03:19:23;;;;;;;5.93;4.43;;;21.60;50.60;;;;;;5114037;28;20081;-72
2024/01/29 03:21:50;;;;;;;7.03;5.13;;;21.80;50.70;;;;;;5114490;28;20031;-72
2024/01/29 03:24:16;;;;;;;7.32;5.03;;;21.70;50.70;;;;;;5114156;28;20040;-71
2024/01/29 03:26:42;;;;;;;6.95;5.03;;;21.80;50.70;;;;;;5095602;28;20032;-72
2024/01/29 03:29:08;;;;;;;7.38;5.60;;;21.70;50.70;;;;;;5114117;28;20135;-72
2024/01/29 03:31:34;;;;;;;7.32;5.00;;;21.70;50.60;;;;;;5112926;28;20035;-72
2024/01/29 03:34:00;;;;;;;6.93;4.97;;;21.60;50.60;;;;;;5113946;28;20063;-72
2024/01/29 03:36:26;;;;;;;7.57;5.35;;;21.50;50.60;;;;;;5113292;28;20046;-72
2024/01/29 03:38:52;;;;;;;6.90;4.95;;;21.50;50.60;;;;;;5090326;28;20051;-72
2024/01/29 03:41:18;;;;;;;6.22;4.75;;;21.60;50.60;;;;;;5085602;28;20090;-72
2024/01/29 03:43:45;;;;;;;6.57;4.57;;;21.50;50.60;;;;;;5090641;28;20075;-71
2024/01/29 03:46:11;;;;;;;7.22;5.55;;;21.50;50.60;;;;;;5090304;28;20046;-71
2024/01/29 03:48:37;;;;;;;8.38;5.63;;;21.50;50.50;;;;;;5090586;28;20048;-71
2024/01/29 03:51:03;;;;;;;8.13;5.28;;;21.40;50.50;;;;;;5090564;28;20032;-72
2024/01/29 03:53:29;;;;;;;5.82;4.70;;;21.50;50.60;;;;;;5107843;28;20484;-71
2024/01/29 03:55:56;;;;;;;9.15;5.97;;;21.50;50.60;;;;;;5090046;28;20036;-71
2024/01/29 03:58:22;;;;;;;7.03;5.30;;;21.50;50.50;;;;;;5039434;28;20041;-71
2024/01/29 04:00:48;;;;;;;8.95;5.05;;;21.50;50.50;;;;;;5049277;28;20041;-72
2024/01/29 04:03:14;;;;;;;11.23;6.03;;;21.50;50.40;;;;;;5050385;28;20064;-72
2024/01/29 04:05:44;;;;;;;5.75;4.95;;;21.50;50.40;;;;;;5049101;28;20103;-72
2024/01/29 04:08:10;;;;;;;7.93;4.93;;;21.60;50.50;;;;;;5031088;28;20045;-71
2024/01/29 04:10:36;;;;;;;8.73;5.28;;;21.70;50.50;;;;;;5028396;28;20130;-72
2024/01/29 04:13:02;;;;;;;7.80;5.57;;;21.70;50.40;;;;;;5033399;28;20037;-72
2024/01/29 04:15:29;;;;;;;8.40;5.75;;;21.60;50.30;;;;;;5049329;28;20099;-72
2024/01/29 04:17:55;;;;;;;8.27;5.82;;;21.60;50.30;;;;;;5049330;28;20128;-72
2024/01/29 04:20:21;;;;;;;8.10;5.30;;;21.60;50.30;;;;;;5049534;28;20092;-71
2024/01/29 04:22:47;;;;;;;7.63;5.03;;;21.60;50.40;;;;;;5049924;28;20044;-72
2024/01/29 04:25:14;;;;;;;8.05;5.57;;;21.60;50.30;;;;;;5049981;28;20421;-72
2024/01/29 04:27:41;;;;;;;8.27;6.10;;;21.60;50.40;;;;;;5049606;28;20052;-71
2024/01/29 04:30:07;;;;;;;8.00;5.35;;;21.60;50.50;;;;;;5100013;28;20096;-71
2024/01/29 04:32:34;;;;;;;8.23;6.13;;;21.50;50.50;;;;;;5112792;28;20065;-72
2024/01/29 04:35:00;;;;;;;8.18;5.85;;;21.50;50.40;;;;;;5094724;28;20031;-71
2024/01/29 04:37:26;;;;;;;8.88;5.60;;;21.40;50.30;;;;;;5111939;28;20130;-71
2024/01/29 04:39:53;;;;;;;8.38;6.03;;;21.40;50.30;;;;;;5112227;28;20043;-72
2024/01/29 04:42:19;;;;;;;9.32;6.25;;;21.50;50.30;;;;;;5104959;28;20035;-72
2024/01/29 04:44:45;;;;;;;9.40;6.68;;;21.40;50.20;;;;;;5112452;28;20031;-71
2024/01/29 04:47:11;;;;;;;11.13;6.60;;;21.40;50.30;;;;;;5094254;28;20050;-72
2024/01/29 04:49:37;;;;;;;8.95;6.53;;;21.50;50.40;;;;;;5112433;28;20035;-72
2024/01/29 04:52:03;;;;;;;10.13;7.25;;;21.30;50.20;;;;;;5057277;28;20055;-72
2024/01/29 04:54:30;;;;;;;9.90;6.43;;;21.50;50.20;;;;;;5111431;28;20023;-73
2024/01/29 04:56:56;;;;;;;10.13;6.72;;;21.40;50.10;;;;;;5093875;28;20815;-72
2024/01/29 04:59:22;;;;;;;9.60;6.45;;;21.40;50.00;;;;;;5110537;28;20067;-71
2024/01/29 05:01:48;;;;;;;8.65;5.72;;;21.40;50.00;;;;;;5111642;28;20024;-72
2024/01/29 05:04:14;;;;;;;8.60;6.00;;;21.40;50.00;;;;;;5111385;28;20096;-72
2024/01/29 05:06:40;;;;;;;8.13;5.95;;;21.50;50.10;;;;;;5110773;28;20553;-71
2024/01/29 05:09:09;;;;;;;8.90;6.55;;;21.40;50.00;;;;;;5058495;28;20079;-72
2024/01/29 05:11:37;;;;;;;10.27;6.20;;;21.40;50.00;;;;;;5111353;28;20084;-72
2024/01/29 05:14:03;;;;;;;8.75;6.15;;;21.50;50.00;;;;;;5111090;28;20055;-72
2024/01/29 05:16:29;;;;;;;8.15;6.13;;;21.40;49.80;;;;;;5110998;28;20031;-72
2024/01/29 05:18:56;;;;;;;9.30;6.32;;;21.40;49.70;;;;;;5111113;28;20039;-71
2024/01/29 05:21:22;;;;;;;10.52;6.82;;;21.40;49.80;;;;;;5092905;28;20034;-71
2024/01/29 05:23:48;;;;;;;10.05;6.47;;;21.30;49.80;;;;;;5110055;28;20035;-72
2024/01/29 05:26:14;;;;;;;9.52;6.43;;;21.30;49.80;;;;;;5110648;28;20028;-72
2024/01/29 05:28:40;;;;;;;10.52;7.35;;;21.30;49.80;;;;;;5092752;28;20131;-72
2024/01/29 05:31:06;;;;;;;8.23;5.70;;;21.20;49.70;;;;;;5109983;28;20031;-72
2024/01/29 05:33:32;;;;;;;9.90;6.72;;;21.20;49.70;;;;;;5110853;28;20387;-71
2024/01/29 05:35:58;;;;;;;9.25;7.57;;;21.20;49.70;;;;;;5083745;28;20037;-71
2024/01/29 05:38:25;;;;;;;11.35;7.15;;;21.30;49.80;;;;;;5110245;28;20051;-72
2024/01/29 05:40:51;;;;;;;10.32;6.82;;;21.10;49.70;;;;;;5115560;27;20035;-72
2024/01/29 05:43:17;;;;;;;8.45;6.57;;;21.20;49.60;;;;;;5112104;28;20063;-72
2024/01/29 05:45:43;;;;;;;8.40;5.65;;;21.20;49.70;;;;;;5093028;28;20027;-72
2024/01/29 05:48:09;;;;;;;10.10;6.78;;;21.20;49.60;;;;;;5110622;28;20119;-73
2024/01/29 05:50:35;;;;;;;8.93;6.35;;;21.10;49.60;;;;;;5110738;28;20031;-70
2024/01/29 05:53:01;;;;;;;8.77;6.70;;;21.20;49.80;;;;;;5092344;28;20093;-72
2024/01/29 05:55:27;;;;;;;8.73;6.43;;;21.40;50.10;;;;;;5092743;28;20189;-72
2024/01/29 05:57:54;;;;;;;9.70;6.28;;;21.20;49.90;;;;;;5110872;28;20020;-71
2024/01/29 06:00:20;;;;;;;10.85;7.63;;;21.30;49.80;;;;;;5110093;28;20028;-71
2024/01/29 06:02:48;;;;;;;11.77;7.80;;;21.50;49.80;;;;;;5111316;28;20153;-71
2024/01/29 06:05:14;;;;;;;10.98;7.70;;;21.30;49.70;;;;;;5092663;28;20446;-71
2024/01/29 06:07:40;;;;;;;10.52;6.85;;;21.30;49.50;;;;;;5058872;28;20040;-71
2024/01/29 06:10:13;;;;;;;10.48;8.02;;;21.30;49.50;;;;;;5111056;28;20050;-73
2024/01/29 06:12:39;;;;;;;12.68;6.85;;;21.30;49.40;;;;;;5111020;28;20471;-73
2024/01/29 06:15:06;;;;;;;9.77;7.13;;;21.30;49.30;;;;;;5111096;28;20662;-73
2024/01/29 06:17:32;;;;;;;11.48;6.72;;;21.30;49.30;;;;;;5111950;28;20050;-72
2024/01/29 06:19:58;;;;;;;10.93;7.50;;;21.20;49.20;;;;;;5111178;28;20096;-72
2024/01/29 06:22:25;;;;;;;11.38;7.45;;;21.30;49.40;;;;;;5111555;28;20039;-73
2024/01/29 06:24:51;;;;;;;13.30;7.60;;;21.10;49.40;;;;;;5110042;28;20455;-72
2024/01/29 06:27:17;;;;;;;12.38;7.82;;;21.10;49.40;;;;;;5111141;28;20043;-71
2024/01/29 06:29:43;;;;;;;11.63;7.65;;;21.20;49.40;;;;;;5108901;28;20020;-70
2024/01/29 06:32:09;;;;;;;10.77;7.72;;;21.20;49.70;;;;;;5111015;28;20023;-68
2024/01/29 06:34:36;;;;;;;4.65;2.70;;;21.00;50.20;;;;;;5079057;28;20035;-71
2024/01/29 06:37:02;;;;;;;4.55;2.90;;;21.20;41.10;;;;;;5114676;28;20063;-72
2024/01/29 06:39:28;;;;;;;6.90;3.42;;;21.10;39.90;;;;;;5114638;28;20027;-71
2024/01/29 06:41:54;;;;;;;9.55;4.05;;;21.20;37.80;;;;;;5079421;28;20107;-72
2024/01/29 06:44:20;;;;;;;9.00;3.83;;;21.10;37.60;;;;;;5114572;28;20147;-72
2024/01/29 06:46:46;;;;;;;7.78;4.80;;;21.20;44.10;;;;;;5114610;28;20027;-71
2024/01/29 06:49:30;;;;;;;9.45;4.75;;;21.50;43.40;;;;;;5114834;28;20039;-72
2024/01/29 06:51:57;;;;;;;8.98;5.50;;;21.60;47.60;;;;;;5112057;28;20032;-72
2024/01/29 06:54:24;;;;;;;9.57;5.82;;;21.60;44.50;;;;;;5114379;28;20114;-72
2024/01/29 06:56:52;;;;;;;9.43;7.22;;;21.60;45.00;;;;;;5096173;28;20030;-72
2024/01/29 06:59:18;;;;;;;12.90;9.30;;;21.80;45.10;;;;;;5114532;28;20074;-71
2024/01/29 07:01:44;;;;;;;16.85;13.50;;;21.60;44.00;;;;;;5113714;28;20028;-74
2024/01/29 07:04:10;;;;;;;13.23;8.40;;;21.90;47.50;;;;;;5114079;28;20472;-71
2024/01/29 07:06:37;;;;;;;13.13;9.25;;;22.00;53.60;;;;;;5114132;28;20047;-71
2024/01/29 07:09:03;;;;;;;10.77;7.75;;;21.90;50.40;;;;;;5114602;27;20039;-74
2024/01/29 07:11:29;;;;;;;12.23;8.68;;;22.10;49.80;;;;;;5115146;27;20493;-73
2024/01/29 07:13:55;;;;;;;11.55;7.78;;;22.00;49.40;;;;;;5114119;28;20031;-74
2024/01/29 07:16:21;;;;;;;12.57;7.97;;;22.00;49.30;;;;;;5117460;27;20031;-72
2024/01/29 07:18:48;;;;;;;10.60;7.65;;;22.10;49.30;;;;;;5127415;27;20584;-74
2024/01/29 07:21:14;;;;;;;15.02;8.98;;;22.00;49.10;;;;;;5113583;28;20073;-73
2024/01/29 07:23:40;;;;;;;8.18;4.43;;;21.90;49.00;;;;;;5095679;28;20035;-75
2024/01/29 07:26:06;;;;;;;14.13;8.63;;;22.00;49.10;;;;;;5128121;27;20545;-72
2024/01/29 07:28:33;;;;;;;11.65;7.88;;;21.90;48.40;;;;;;5115691;27;20122;-72
2024/01/29 07:30:59;;;;;;;14.25;7.82;;;21.90;47.00;;;;;;5113786;28;20476;-72
2024/01/29 07:33:25;;;;;;;13.10;8.40;;;22.00;46.40;;;;;;5114006;28;20051;-72
2024/01/29 07:35:51;;;;;;;14.95;9.50;;;21.90;46.70;;;;;;5113202;28;20413;-74
2024/01/29 07:38:17;;;;;;;7.50;3.60;;;21.90;47.10;;;;;;5113653;28;20028;-71
2024/01/29 07:40:43;;;;;;;7.10;3.50;;;21.80;47.50;;;;;;5123644;27;20110;-72
2024/01/29 07:43:09;;;;;;;4.72;3.15;;;21.90;47.80;;;;;;5092163;27;20031;-72
2024/01/29 07:45:36;;;;;;;5.75;2.80;;;21.90;47.60;;;;;;5094172;28;20119;-73
2024/01/29 07:48:04;;;;;;;4.50;3.30;;;21.90;47.20;;;;;;5095776;28;20019;-72
2024/01/29 07:50:31;;;;;;;3.10;2.70;;;22.00;46.90;;;;;;5113528;28;20141;-73
2024/01/29 07:52:57;;;;;;;4.53;3.28;;;21.90;46.40;;;;;;5095323;28;20043;-72
2024/01/29 07:55:23;;;;;;;6.55;3.63;;;21.90;45.90;;;;;;5113644;28;20024;-73
2024/01/29 07:57:49;;;;;;;6.65;4.00;;;22.00;45.50;;;;;;5078231;28;20028;-72
2024/01/29 08:00:16;;;;;;;7.90;3.50;;;21.90;45.30;;;;;;5113198;28;20035;-70
2024/01/29 08:02:42;;;;;;;6.00;3.08;;;22.00;44.70;;;;;;5095580;28;20105;-73
2024/01/29 08:05:09;;;;;;;12.93;4.30;;;21.90;46.20;;;;;;5113577;28;20036;-69
2024/01/29 08:07:35;;;;;;;7.57;3.80;;;22.00;47.70;;;;;;5113289;28;20035;-71
2024/01/29 08:10:01;;;;;;;4.90;2.70;;;22.00;46.80;;;;;;5113224;28;20114;-71
2024/01/29 08:12:30;;;;;;;5.55;3.47;;;22.10;46.10;;;;;;5112918;28;20122;-71
2024/01/29 08:14:56;;;;;;;6.78;3.90;;;22.00;45.20;;;;;;5112843;28;20455;-72
2024/01/29 08:17:22;;;;;;;4.57;3.75;;;22.00;44.80;;;;;;5109336;27;20046;-72
2024/01/29 08:19:48;;;;;;;5.68;3.70;;;22.20;44.40;;;;;;5134049;27;20043;-74
2024/01/29 08:22:14;;;;;;;5.43;3.38;;;22.00;44.00;;;;;;5133374;27;20035;-74
2024/01/29 08:24:40;;;;;;;5.00;3.63;;;22.10;44.00;;;;;;5133612;27;20132;-73
2024/01/29 08:27:06;;;;;;;11.68;5.10;;;22.20;43.70;;;;;;5133334;27;20440;-73
2024/01/29 08:29:33;;;;;;;8.77;4.13;;;22.10;43.50;;;;;;5115017;27;20112;-73
2024/01/29 08:31:59;;;;;;;8.30;4.07;;;22.20;43.50;;;;;;5111978;28;20099;-73
2024/01/29 08:34:25;;;;;;;5.63;3.75;;;22.10;43.60;;;;;;5112479;28;20119;-73
2024/01/29 08:36:51;;;;;;;8.95;4.32;;;22.10;43.60;;;;;;5111961;28;20071;-73
2024/01/29 08:39:17;;;;;;;4.25;3.85;;;22.10;43.50;;;;;;5112485;28;20052;-71
2024/01/29 08:41:43;;;;;;;8.38;4.63;;;22.20;43.50;;;;;;5111912;27;20040;-71
2024/01/29 08:44:10;;;;;;;12.52;8.98;;;22.10;43.60;;;;;;5111695;28;20450;-72
2024/01/29 08:46:36;;;;;;;5.22;3.55;;;22.00;43.50;;;;;;5093940;28;20467;-72
2024/01/29 08:49:03;;;;;;;7.05;4.10;;;22.00;43.60;;;;;;5112040;28;20407;-74
2024/01/29 08:51:29;;;;;;;14.90;8.90;;;22.00;43.70;;;;;;5111879;28;20032;-72
2024/01/29 08:53:56;;;;;;;12.88;8.82;;;22.00;43.60;;;;;;5094032;28;20068;-73
2024/01/29 08:56:22;;;;;;;14.50;9.30;;;22.00;43.80;;;;;;5111533;28;20360;-71
2024/01/29 08:58:48;;;;;;;15.35;9.43;;;22.10;45.40;;;;;;5111935;28;20088;-70
2024/01/29 09:01:14;;;;;;;12.90;8.65;;;21.90;45.30;;;;;;5094122;28;20042;-71
2024/01/29 09:03:40;;;;;;;15.18;9.52;;;22.00;45.20;;;;;;5076329;28;20047;-72
2024/01/29 09:06:06;;;;;;;15.30;10.02;;;21.80;45.20;;;;;;5112251;28;20046;-72
2024/01/29 09:08:32;;;;;;;12.40;9.02;;;21.80;45.20;;;;;;5112106;28;20044;-71
2024/01/29 09:10:58;;;;;;;14.52;10.23;;;22.00;45.40;;;;;;5112113;28;20032;-73
2024/01/29 09:13:25;;;;;;;13.45;9.85;;;22.00;45.50;;;;;;5111811;28;20107;-73
2024/01/29 09:15:51;;;;;;;18.73;10.15;;;21.80;45.50;;;;;;5113812;28;20035;-73
2024/01/29 09:18:17;;;;;;;14.55;9.35;;;22.00;45.70;;;;;;5132448;27;20131;-71
2024/01/29 09:20:43;;;;;;;13.88;9.18;;;21.80;45.80;;;;;;5128682;27;20027;-71
2024/01/29 09:23:09;;;;;;;17.63;10.00;;;21.80;45.90;;;;;;5093224;28;20486;-70
2024/01/29 09:25:35;;;;;;;16.58;9.73;;;21.80;46.10;;;;;;5111916;28;20023;-71
2024/01/29 09:28:01;;;;;;;12.68;8.98;;;21.80;46.50;;;;;;5111111;28;20043;-69
2024/01/29 09:30:27;;;;;;;14.80;9.75;;;21.90;46.90;;;;;;5111540;28;20046;-71
2024/01/29 09:32:53;;;;;;;15.73;9.75;;;21.80;47.00;;;;;;5111319;28;20036;-70
2024/01/29 09:35:19;;;;;;;12.48;8.85;;;21.80;47.70;;;;;;5112064;28;20027;-73
2024/01/29 09:37:45;;;;;;;18.13;11.18;;;21.80;48.10;;;;;;5111800;28;20427;-71
2024/01/29 09:40:13;;;;;;;15.75;10.13;;;21.80;48.40;;;;;;5112983;28;20031;-71
2024/01/29 09:42:48;;;;;;;18.50;11.27;;;22.00;48.80;;;;;;5111561;28;20038;-72
2024/01/29 09:45:21;;;;;;;13.32;9.77;;;21.90;49.20;;;;;;5112202;28;20031;-71
2024/01/29 09:47:49;;;;;;;16.17;11.25;;;22.00;49.50;;;;;;5111919;28;20044;-71
2024/01/29 09:50:16;;;;;;;16.20;10.23;;;21.90;49.80;;;;;;5110207;28;20070;-71
2024/01/29 09:52:45;;;;;;;14.05;9.93;;;22.00;50.20;;;;;;5111565;28;20027;-72
2024/01/29 09:55:11;;;;;;;20.77;11.52;;;21.80;50.30;;;;;;5111665;28;20032;-72
2024/01/29 09:57:38;;;;;;;19.42;11.70;;;21.90;50.60;;;;;;5111234;28;20546;-71
2024/01/29 10:00:06;;;;;;;19.85;12.85;;;21.90;50.80;;;;;;5093421;28;20573;-71
2024/01/29 10:02:35;;;;;;;22.02;12.55;;;22.00;50.90;;;;;;5111608;28;20110;-70
2024/01/29 10:05:01;;;;;;;19.00;12.13;;;22.00;51.20;;;;;;5111445;28;20035;-71
2024/01/29 10:07:27;;;;;;;21.33;12.32;;;22.00;51.40;;;;;;5092915;28;20491;-71
2024/01/29 10:09:53;;;;;;;21.20;14.10;;;22.00;51.30;;;;;;5072215;28;20804;-71
2024/01/29 10:12:22;;;;;;;22.55;13.63;;;22.10;51.40;;;;;;5072445;28;20056;-72
2024/01/29 10:14:48;;;;;;;26.05;14.05;;;21.90;51.30;;;;;;5072570;28;20454;-71
2024/01/29 10:17:14;;;;;;;28.30;16.83;;;22.00;51.40;;;;;;5068680;28;20050;-71
2024/01/29 10:19:43;;;;;;;23.27;13.43;;;22.00;51.20;;;;;;5092379;28;20163;-71
2024/01/29 10:22:13;;;;;;;20.42;13.15;;;22.20;51.20;;;;;;5092839;28;20035;-71
2024/01/29 10:24:39;;;;;;;19.38;12.77;;;22.00;50.80;;;;;;5092740;28;20070;-71
2024/01/29 10:27:08;;;;;;;14.45;9.30;;;22.10;50.90;;;;;;5092207;28;20120;-71
2024/01/29 10:29:50;;;;;;;12.82;8.60;;;22.10;50.80;;;;;;5059204;28;20044;-71
2024/01/29 10:32:16;;;;;;;15.70;8.95;;;22.10;50.80;;;;;;5051727;28;20032;-71
2024/01/29 10:34:42;;;;;;;12.30;8.95;;;22.00;51.20;;;;;;5069934;28;20173;-70
2024/01/29 10:37:11;;;;;;;13.98;8.63;;;22.00;51.10;;;;;;5072258;28;20378;-71
2024/01/29 10:39:38;;;;;;;7.38;4.57;;;21.90;51.00;;;;;;5072094;28;20121;-72
2024/01/29 10:42:07;;;;;;;5.82;5.13;;;21.90;47.10;;;;;;5114375;28;20184;-72
2024/01/29 10:44:36;;;;;;;6.13;5.32;;;22.00;39.00;;;;;;5114873;28;20105;-71
2024/01/29 10:47:24;;;;;;;6.75;5.03;;;21.90;39.80;;;;;;5115358;28;20031;-72
2024/01/29 10:49:52;;;;;;;7.07;5.18;;;21.80;40.00;;;;;;5114884;28;20028;-71
2024/01/29 10:52:20;;;;;;;7.93;5.32;;;21.80;37.60;;;;;;5114476;28;20523;-72
2024/01/29 10:54:47;;;;;;;10.52;6.50;;;21.90;38.90;;;;;;5114921;28;20035;-72
2024/01/29 10:57:15;;;;;;;9.18;6.03;;;21.80;38.10;;;;;;5115031;28;20050;-72
2024/01/29 10:59:43;;;;;;;8.38;5.82;;;21.90;35.10;;;;;;5114019;28;20051;-71
2024/01/29 11:02:16;;;;;;;9.23;6.63;;;21.80;35.00;;;;;;5095134;28;20039;-72
2024/01/29 11:04:43;;;;;;;;;;;21.80;33.50;;;;;;5115293;28;20577;-72
2024/01/29 11:07:26;;;;;;;7.95;6.50;;;21.80;33.60;;;;;;5114499;28;19941;-71
2024/01/29 11:10:08;;;;;;;8.32;6.18;;;21.90;32.30;;;;;;5114569;28;20059;-69
2024/01/29 11:12:35;;;;;;;9.70;6.82;;;21.90;32.80;;;;;;5114543;28;20063;-71
2024/01/29 11:15:04;;;;;;;11.98;6.38;;;21.90;33.20;;;;;;5114391;28;20467;-71
2024/01/29 11:17:30;;;;;;;12.63;8.93;;;21.90;33.70;;;;;;5129881;27;20589;-71
2024/01/29 11:20:08;;;;;;;13.60;8.68;;;21.90;44.50;;;;;;5132820;27;20037;-72
2024/01/29 11:22:39;;;;;;;12.35;9.13;;;22.30;49.20;;;;;;5113741;28;20053;-72
2024/01/29 11:25:16;;;;;;;10.82;6.28;;;22.80;50.90;;;;;;5114440;28;20035;-71
2024/01/29 11:27:44;;;;;;;33.10;11.35;;;22.80;41.10;;;;;;5095741;28;20051;-71
2024/01/29 11:30:19;;;;;;;9.65;6.97;;;22.70;40.70;;;;;;5087673;28;20032;-71
2024/01/29 11:32:49;;;;;;;11.88;7.85;;;22.70;41.80;;;;;;5074413;28;20564;-71
2024/01/29 11:35:23;;;;;;;11.20;8.13;;;22.70;38.90;;;;;;5091387;28;20032;-72
2024/01/29 11:37:50;;;;;;;14.85;9.43;;;22.60;40.70;;;;;;5087296;28;20039;-71
2024/01/29 11:40:46;;;;;;;13.68;9.10;;;22.80;48.00;;;;;;5089681;28;20032;-71
2024/01/29 11:43:14;;;;;;;13.35;9.00;;;22.90;48.40;;;;;;5070370;28;20040;-71
2024/01/29 11:45:41;;;;;;;11.18;7.97;;;23.00;47.70;;;;;;5070626;28;20356;-71
2024/01/29 11:48:11;;;;;;;14.35;9.57;;;22.90;47.40;;;;;;5070192;28;20044;-71
2024/01/29 11:50:43;;;;;;;12.43;8.80;;;22.90;47.10;;;;;;5070248;28;20028;-71
2024/01/29 11:53:16;;;;;;;10.90;8.00;;;22.90;46.90;;;;;;5070102;28;20063;-71
2024/01/29 11:55:44;;;;;;;11.95;8.15;;;23.00;46.60;;;;;;5070078;28;20032;-71
2024/01/29 11:58:21;;;;;;;12.18;8.30;;;23.00;46.50;;;;;;5052743;28;20119;-71
2024/01/29 12:00:49;;;;;;;13.02;9.05;;;22.90;46.40;;;;;;5069585;28;20056;-73
2024/01/29 12:03:20;;;;;;;15.95;8.93;;;22.80;46.50;;;;;;5036086;28;20049;-72
2024/01/29 12:05:46;;;;;;;13.95;9.10;;;22.90;46.60;;;;;;5052994;28;20044;-72
2024/01/29 12:08:15;;;;;;;17.73;9.07;;;23.00;46.70;;;;;;5069477;28;20036;-72
2024/01/29 12:10:43;;;;;;;13.00;8.95;;;22.90;46.90;;;;;;5069719;28;20033;-71
2024/01/29 12:13:17;;;;;;;14.10;9.20;;;22.80;46.80;;;;;;5069207;28;20037;-70
2024/01/29 12:15:44;;;;;;;13.88;9.18;;;22.70;46.90;;;;;;5069597;28;20037;-69
2024/01/29 12:18:26;;;;;;;12.80;8.05;;;22.70;47.00;;;;;;5069329;28;20123;-70
2024/01/29 12:20:53;;;;;;;12.50;8.32;;;22.70;47.20;;;;;;5092198;28;20115;-70
2024/01/29 12:23:23;;;;;;;6.90;5.13;;;22.60;47.20;;;;;;5093736;28;20028;-71
2024/01/29 12:25:53;;;;;;;12.30;6.82;;;22.70;46.60;;;;;;5112667;28;20034;-70
2024/01/29 12:28:20;;;;;;;13.85;8.18;;;22.80;45.80;;;;;;5112283;28;20071;-70
2024/01/29 12:30:57;;;;;;;10.57;7.60;;;22.60;46.80;;;;;;5112052;28;20525;-70
2024/01/29 12:33:29;;;;;;;12.82;7.70;;;22.70;47.00;;;;;;5049444;28;20049;-69
2024/01/29 12:36:16;;;;;;;14.50;7.82;;;22.60;47.10;;;;;;5049701;28;20520;-70
2024/01/29 12:38:52;;;;;;;8.57;5.57;;;22.60;47.30;;;;;;4989984;28;20085;-70
2024/01/29 12:41:19;;;;;;;10.10;6.15;;;22.60;47.50;;;;;;4989556;28;20038;-71
2024/01/29 12:43:45;;;;;;;11.23;7.78;;;22.60;47.50;;;;;;4989740;28;20620;-71